sensor_id;sensor_type;location;lat;lon;timestamp;P1;durP1;ratioP1;P2;durP2;ratioP2
74102;SDS011;62853;46.166;3.640;2023-04-06T00:00:50;18.60;;;9.50;;
74102;SDS011;62853;46.166;3.640;2023-04-06T00:03:16;19.52;;;9.60;;
74102;SDS011;62853;46.166;3.640;2023-04-06T00:05:41;21.15;;;9.85;;
74102;SDS011;62853;46.166;3.640;2023-04-06T00:08:07;19.27;;;9.63;;
74102;SDS011;62853;46.166;3.640;2023-04-06T00:10:33;20.90;;;9.07;;
74102;SDS011;62853;46.166;3.640;2023-04-06T00:12:58;19.25;;;9.93;;
74102;SDS011;62853;46.166;3.640;2023-04-06T00:15:25;21.95;;;9.63;;
74102;SDS011;62853;46.166;3.640;2023-04-06T00:17:50;18.17;;;8.95;;
74102;SDS011;62853;46.166;3.640;2023-04-06T00:20:16;19.33;;;9.55;;
74102;SDS011;62853;46.166;3.640;2023-04-06T00:22:43;19.80;;;8.93;;
74102;SDS011;62853;46.166;3.640;2023-04-06T00:25:08;20.08;;;9.20;;
74102;SDS011;62853;46.166;3.640;2023-04-06T00:27:35;19.77;;;9.27;;
74102;SDS011;62853;46.166;3.640;2023-04-06T00:30:01;17.83;;;8.75;;
74102;SDS011;62853;46.166;3.640;2023-04-06T00:32:28;17.38;;;9.48;;
74102;SDS011;62853;46.166;3.640;2023-04-06T00:34:53;17.98;;;8.48;;
74102;SDS011;62853;46.166;3.640;2023-04-06T00:37:18;18.77;;;10.32;;
74102;SDS011;62853;46.166;3.640;2023-04-06T00:39:44;19.35;;;9.27;;
74102;SDS011;62853;46.166;3.640;2023-04-06T00:42:13;20.65;;;9.32;;
74102;SDS011;62853;46.166;3.640;2023-04-06T00:44:42;20.92;;;8.93;;
74102;SDS011;62853;46.166;3.640;2023-04-06T00:47:08;20.23;;;9.07;;
74102;SDS011;62853;46.166;3.640;2023-04-06T00:49:33;19.52;;;8.45;;
74102;SDS011;62853;46.166;3.640;2023-04-06T00:51:59;17.70;;;9.07;;
74102;SDS011;62853;46.166;3.640;2023-04-06T00:54:26;19.23;;;9.05;;
74102;SDS011;62853;46.166;3.640;2023-04-06T00:56:52;17.55;;;8.68;;
74102;SDS011;62853;46.166;3.640;2023-04-06T00:59:17;21.88;;;9.88;;
74102;SDS011;62853;46.166;3.640;2023-04-06T01:01:43;16.85;;;8.90;;
74102;SDS011;62853;46.166;3.640;2023-04-06T01:04:09;22.60;;;9.63;;
74102;SDS011;62853;46.166;3.640;2023-04-06T01:06:34;20.15;;;9.70;;
74102;SDS011;62853;46.166;3.640;2023-04-06T01:09:00;18.20;;;9.15;;
74102;SDS011;62853;46.166;3.640;2023-04-06T01:11:25;19.92;;;9.73;;
74102;SDS011;62853;46.166;3.640;2023-04-06T01:13:51;18.05;;;9.27;;
74102;SDS011;62853;46.166;3.640;2023-04-06T01:16:17;22.73;;;9.48;;
74102;SDS011;62853;46.166;3.640;2023-04-06T01:18:42;24.25;;;9.90;;
74102;SDS011;62853;46.166;3.640;2023-04-06T01:21:08;16.65;;;8.43;;
74102;SDS011;62853;46.166;3.640;2023-04-06T01:23:35;20.30;;;9.10;;
74102;SDS011;62853;46.166;3.640;2023-04-06T01:26:00;16.23;;;9.15;;
74102;SDS011;62853;46.166;3.640;2023-04-06T01:28:26;19.85;;;9.15;;
74102;SDS011;62853;46.166;3.640;2023-04-06T01:30:51;20.58;;;9.65;;
74102;SDS011;62853;46.166;3.640;2023-04-06T01:33:16;19.33;;;9.25;;
74102;SDS011;62853;46.166;3.640;2023-04-06T01:35:42;19.33;;;9.63;;
74102;SDS011;62853;46.166;3.640;2023-04-06T01:38:07;22.15;;;9.13;;
74102;SDS011;62853;46.166;3.640;2023-04-06T01:40:33;24.65;;;10.10;;
74102;SDS011;62853;46.166;3.640;2023-04-06T01:42:58;19.48;;;9.57;;
74102;SDS011;62853;46.166;3.640;2023-04-06T01:45:24;18.73;;;9.30;;
74102;SDS011;62853;46.166;3.640;2023-04-06T01:47:50;22.50;;;9.80;;
74102;SDS011;62853;46.166;3.640;2023-04-06T01:50:15;24.05;;;10.70;;
74102;SDS011;62853;46.166;3.640;2023-04-06T01:52:41;17.67;;;9.20;;
74102;SDS011;62853;46.166;3.640;2023-04-06T01:55:06;20.65;;;9.75;;
74102;SDS011;62853;46.166;3.640;2023-04-06T01:57:32;24.38;;;10.05;;
74102;SDS011;62853;46.166;3.640;2023-04-06T01:59:58;18.45;;;9.60;;
74102;SDS011;62853;46.166;3.640;2023-04-06T02:02:23;20.88;;;10.07;;
74102;SDS011;62853;46.166;3.640;2023-04-06T02:04:49;27.52;;;10.57;;
74102;SDS011;62853;46.166;3.640;2023-04-06T02:07:14;22.08;;;9.82;;
74102;SDS011;62853;46.166;3.640;2023-04-06T02:09:40;21.83;;;10.90;;
74102;SDS011;62853;46.166;3.640;2023-04-06T02:12:05;17.98;;;10.32;;
74102;SDS011;62853;46.166;3.640;2023-04-06T02:14:30;20.17;;;10.55;;
74102;SDS011;62853;46.166;3.640;2023-04-06T02:16:56;21.13;;;10.35;;
74102;SDS011;62853;46.166;3.640;2023-04-06T02:19:21;21.80;;;10.48;;
74102;SDS011;62853;46.166;3.640;2023-04-06T02:21:47;21.98;;;9.32;;
74102;SDS011;62853;46.166;3.640;2023-04-06T02:24:12;24.98;;;11.30;;
74102;SDS011;62853;46.166;3.640;2023-04-06T02:26:38;23.10;;;10.63;;
74102;SDS011;62853;46.166;3.640;2023-04-06T02:29:03;21.63;;;10.93;;
74102;SDS011;62853;46.166;3.640;2023-04-06T02:31:29;20.10;;;10.35;;
74102;SDS011;62853;46.166;3.640;2023-04-06T02:33:54;21.35;;;10.13;;
74102;SDS011;62853;46.166;3.640;2023-04-06T02:36:20;21.98;;;10.88;;
74102;SDS011;62853;46.166;3.640;2023-04-06T02:38:45;26.90;;;11.52;;
74102;SDS011;62853;46.166;3.640;2023-04-06T02:41:11;20.35;;;10.80;;
74102;SDS011;62853;46.166;3.640;2023-04-06T02:43:36;26.63;;;11.90;;
74102;SDS011;62853;46.166;3.640;2023-04-06T02:46:01;25.05;;;11.35;;
74102;SDS011;62853;46.166;3.640;2023-04-06T02:48:27;24.90;;;12.30;;
74102;SDS011;62853;46.166;3.640;2023-04-06T02:50:52;28.40;;;12.23;;
74102;SDS011;62853;46.166;3.640;2023-04-06T02:53:18;24.52;;;11.23;;
74102;SDS011;62853;46.166;3.640;2023-04-06T02:55:43;24.75;;;13.55;;
74102;SDS011;62853;46.166;3.640;2023-04-06T02:58:09;24.15;;;12.20;;
74102;SDS011;62853;46.166;3.640;2023-04-06T03:00:34;25.27;;;12.05;;
74102;SDS011;62853;46.166;3.640;2023-04-06T03:03:01;28.17;;;12.80;;
74102;SDS011;62853;46.166;3.640;2023-04-06T03:05:26;27.98;;;12.98;;
74102;SDS011;62853;46.166;3.640;2023-04-06T03:07:51;30.52;;;13.40;;
74102;SDS011;62853;46.166;3.640;2023-04-06T03:10:17;25.83;;;13.63;;
74102;SDS011;62853;46.166;3.640;2023-04-06T03:12:42;29.48;;;13.23;;
74102;SDS011;62853;46.166;3.640;2023-04-06T03:15:08;27.98;;;13.90;;
74102;SDS011;62853;46.166;3.640;2023-04-06T03:17:34;26.88;;;13.40;;
74102;SDS011;62853;46.166;3.640;2023-04-06T03:20:00;26.30;;;13.48;;
74102;SDS011;62853;46.166;3.640;2023-04-06T03:22:25;28.60;;;14.43;;
74102;SDS011;62853;46.166;3.640;2023-04-06T03:24:51;27.42;;;13.50;;
74102;SDS011;62853;46.166;3.640;2023-04-06T03:27:16;26.30;;;13.68;;
74102;SDS011;62853;46.166;3.640;2023-04-06T03:29:41;28.38;;;13.77;;
74102;SDS011;62853;46.166;3.640;2023-04-06T03:32:07;29.17;;;13.27;;
74102;SDS011;62853;46.166;3.640;2023-04-06T03:34:32;28.00;;;13.43;;
74102;SDS011;62853;46.166;3.640;2023-04-06T03:36:58;27.35;;;13.35;;
74102;SDS011;62853;46.166;3.640;2023-04-06T03:39:23;29.65;;;14.50;;
74102;SDS011;62853;46.166;3.640;2023-04-06T03:41:49;30.35;;;14.75;;
74102;SDS011;62853;46.166;3.640;2023-04-06T03:44:14;27.45;;;13.75;;
74102;SDS011;62853;46.166;3.640;2023-04-06T03:46:40;30.42;;;14.07;;
74102;SDS011;62853;46.166;3.640;2023-04-06T03:49:05;32.72;;;14.45;;
74102;SDS011;62853;46.166;3.640;2023-04-06T03:51:31;33.97;;;15.02;;
74102;SDS011;62853;46.166;3.640;2023-04-06T03:53:56;27.75;;;14.40;;
74102;SDS011;62853;46.166;3.640;2023-04-06T03:56:22;29.75;;;14.10;;
74102;SDS011;62853;46.166;3.640;2023-04-06T03:58:47;27.02;;;14.40;;
74102;SDS011;62853;46.166;3.640;2023-04-06T04:01:16;31.88;;;15.15;;
74102;SDS011;62853;46.166;3.640;2023-04-06T04:03:42;34.22;;;14.50;;
74102;SDS011;62853;46.166;3.640;2023-04-06T04:06:08;27.83;;;14.40;;
74102;SDS011;62853;46.166;3.640;2023-04-06T04:08:33;30.77;;;14.63;;
74102;SDS011;62853;46.166;3.640;2023-04-06T04:11:00;27.73;;;14.18;;
74102;SDS011;62853;46.166;3.640;2023-04-06T04:13:25;30.02;;;14.07;;
74102;SDS011;62853;46.166;3.640;2023-04-06T04:15:51;27.45;;;13.40;;
74102;SDS011;62853;46.166;3.640;2023-04-06T04:18:16;30.30;;;14.23;;
74102;SDS011;62853;46.166;3.640;2023-04-06T04:20:42;26.25;;;13.48;;
74102;SDS011;62853;46.166;3.640;2023-04-06T04:23:07;29.52;;;13.55;;
74102;SDS011;62853;46.166;3.640;2023-04-06T04:25:32;29.00;;;13.63;;
74102;SDS011;62853;46.166;3.640;2023-04-06T04:27:58;27.30;;;14.30;;
74102;SDS011;62853;46.166;3.640;2023-04-06T04:30:23;30.35;;;14.27;;
74102;SDS011;62853;46.166;3.640;2023-04-06T04:32:49;29.85;;;14.48;;
74102;SDS011;62853;46.166;3.640;2023-04-06T04:35:14;32.28;;;13.68;;
74102;SDS011;62853;46.166;3.640;2023-04-06T04:37:40;25.02;;;13.05;;
74102;SDS011;62853;46.166;3.640;2023-04-06T04:40:06;30.98;;;14.45;;
74102;SDS011;62853;46.166;3.640;2023-04-06T04:42:32;31.52;;;14.32;;
74102;SDS011;62853;46.166;3.640;2023-04-06T04:44:58;30.17;;;13.57;;
74102;SDS011;62853;46.166;3.640;2023-04-06T04:47:24;24.70;;;13.70;;
74102;SDS011;62853;46.166;3.640;2023-04-06T04:49:49;29.52;;;14.00;;
74102;SDS011;62853;46.166;3.640;2023-04-06T04:52:15;31.17;;;14.10;;
74102;SDS011;62853;46.166;3.640;2023-04-06T04:54:40;34.20;;;14.77;;
74102;SDS011;62853;46.166;3.640;2023-04-06T04:57:06;28.25;;;13.85;;
74102;SDS011;62853;46.166;3.640;2023-04-06T04:59:31;32.38;;;13.77;;
74102;SDS011;62853;46.166;3.640;2023-04-06T05:01:57;31.80;;;13.90;;
74102;SDS011;62853;46.166;3.640;2023-04-06T05:04:22;29.17;;;14.18;;
74102;SDS011;62853;46.166;3.640;2023-04-06T05:06:48;29.27;;;13.95;;
74102;SDS011;62853;46.166;3.640;2023-04-06T05:09:14;33.10;;;14.35;;
74102;SDS011;62853;46.166;3.640;2023-04-06T05:11:40;48.67;;;15.80;;
74102;SDS011;62853;46.166;3.640;2023-04-06T05:14:05;41.35;;;14.85;;
74102;SDS011;62853;46.166;3.640;2023-04-06T05:16:32;42.72;;;14.85;;
74102;SDS011;62853;46.166;3.640;2023-04-06T05:18:58;55.90;;;16.65;;
74102;SDS011;62853;46.166;3.640;2023-04-06T05:21:24;67.32;;;15.70;;
74102;SDS011;62853;46.166;3.640;2023-04-06T05:23:51;67.28;;;17.73;;
74102;SDS011;62853;46.166;3.640;2023-04-06T05:26:16;42.08;;;13.90;;
74102;SDS011;62853;46.166;3.640;2023-04-06T05:28:42;45.08;;;14.65;;
74102;SDS011;62853;46.166;3.640;2023-04-06T05:31:09;60.88;;;17.85;;
74102;SDS011;62853;46.166;3.640;2023-04-06T05:33:34;40.40;;;14.35;;
74102;SDS011;62853;46.166;3.640;2023-04-06T05:36:00;28.50;;;12.48;;
74102;SDS011;62853;46.166;3.640;2023-04-06T05:38:26;28.42;;;12.98;;
74102;SDS011;62853;46.166;3.640;2023-04-06T05:40:51;62.92;;;16.67;;
74102;SDS011;62853;46.166;3.640;2023-04-06T05:43:16;158.88;;;24.83;;
74102;SDS011;62853;46.166;3.640;2023-04-06T05:45:43;64.45;;;15.90;;
74102;SDS011;62853;46.166;3.640;2023-04-06T05:48:10;46.75;;;14.73;;
74102;SDS011;62853;46.166;3.640;2023-04-06T05:50:35;24.45;;;12.35;;
74102;SDS011;62853;46.166;3.640;2023-04-06T05:53:00;26.65;;;13.93;;
74102;SDS011;62853;46.166;3.640;2023-04-06T05:55:26;30.27;;;13.07;;
74102;SDS011;62853;46.166;3.640;2023-04-06T05:57:52;38.42;;;14.90;;
74102;SDS011;62853;46.166;3.640;2023-04-06T06:00:18;25.33;;;12.43;;
74102;SDS011;62853;46.166;3.640;2023-04-06T06:02:44;28.02;;;12.60;;
74102;SDS011;62853;46.166;3.640;2023-04-06T06:05:10;28.95;;;12.23;;
74102;SDS011;62853;46.166;3.640;2023-04-06T06:07:35;39.08;;;13.18;;
74102;SDS011;62853;46.166;3.640;2023-04-06T06:10:01;34.80;;;13.32;;
74102;SDS011;62853;46.166;3.640;2023-04-06T06:12:27;33.70;;;13.70;;
74102;SDS011;62853;46.166;3.640;2023-04-06T06:14:52;29.77;;;13.02;;
74102;SDS011;62853;46.166;3.640;2023-04-06T06:17:18;27.33;;;12.80;;
74102;SDS011;62853;46.166;3.640;2023-04-06T06:19:43;23.60;;;12.80;;
74102;SDS011;62853;46.166;3.640;2023-04-06T06:22:09;32.00;;;13.38;;
74102;SDS011;62853;46.166;3.640;2023-04-06T06:24:36;26.08;;;13.43;;
74102;SDS011;62853;46.166;3.640;2023-04-06T06:27:02;35.55;;;14.35;;
74102;SDS011;62853;46.166;3.640;2023-04-06T06:29:27;29.88;;;13.50;;
74102;SDS011;62853;46.166;3.640;2023-04-06T06:31:53;27.40;;;12.85;;
74102;SDS011;62853;46.166;3.640;2023-04-06T06:34:18;24.52;;;12.60;;
74102;SDS011;62853;46.166;3.640;2023-04-06T06:36:43;27.38;;;13.45;;
74102;SDS011;62853;46.166;3.640;2023-04-06T06:39:11;31.55;;;13.18;;
74102;SDS011;62853;46.166;3.640;2023-04-06T06:41:37;30.33;;;12.80;;
74102;SDS011;62853;46.166;3.640;2023-04-06T06:44:02;25.95;;;12.18;;
74102;SDS011;62853;46.166;3.640;2023-04-06T06:46:28;30.88;;;12.73;;
74102;SDS011;62853;46.166;3.640;2023-04-06T06:48:53;27.70;;;13.70;;
74102;SDS011;62853;46.166;3.640;2023-04-06T06:51:18;29.48;;;12.23;;
74102;SDS011;62853;46.166;3.640;2023-04-06T06:53:44;29.25;;;13.60;;
74102;SDS011;62853;46.166;3.640;2023-04-06T06:56:09;33.92;;;13.85;;
74102;SDS011;62853;46.166;3.640;2023-04-06T06:58:35;30.38;;;12.75;;
74102;SDS011;62853;46.166;3.640;2023-04-06T07:01:00;113.97;;;19.20;;
74102;SDS011;62853;46.166;3.640;2023-04-06T07:03:26;39.45;;;15.20;;
74102;SDS011;62853;46.166;3.640;2023-04-06T07:05:52;34.50;;;13.60;;
74102;SDS011;62853;46.166;3.640;2023-04-06T07:08:20;27.52;;;13.70;;
74102;SDS011;62853;46.166;3.640;2023-04-06T07:10:47;25.60;;;12.65;;
74102;SDS011;62853;46.166;3.640;2023-04-06T07:13:13;27.60;;;12.65;;
74102;SDS011;62853;46.166;3.640;2023-04-06T07:15:43;24.30;;;12.15;;
74102;SDS011;62853;46.166;3.640;2023-04-06T07:18:08;24.67;;;11.50;;
74102;SDS011;62853;46.166;3.640;2023-04-06T07:20:34;27.88;;;12.25;;
74102;SDS011;62853;46.166;3.640;2023-04-06T07:22:59;26.85;;;12.02;;
74102;SDS011;62853;46.166;3.640;2023-04-06T07:25:25;24.10;;;12.32;;
74102;SDS011;62853;46.166;3.640;2023-04-06T07:27:50;26.65;;;12.88;;
74102;SDS011;62853;46.166;3.640;2023-04-06T07:30:16;22.73;;;12.07;;
74102;SDS011;62853;46.166;3.640;2023-04-06T07:32:43;32.10;;;12.77;;
74102;SDS011;62853;46.166;3.640;2023-04-06T07:35:08;28.25;;;12.48;;
74102;SDS011;62853;46.166;3.640;2023-04-06T07:37:34;24.80;;;11.90;;
74102;SDS011;62853;46.166;3.640;2023-04-06T07:40:00;31.77;;;13.20;;
74102;SDS011;62853;46.166;3.640;2023-04-06T07:42:25;22.52;;;11.75;;
74102;SDS011;62853;46.166;3.640;2023-04-06T07:44:50;28.88;;;12.45;;
74102;SDS011;62853;46.166;3.640;2023-04-06T07:47:16;24.33;;;12.15;;
74102;SDS011;62853;46.166;3.640;2023-04-06T07:49:41;28.05;;;12.25;;
74102;SDS011;62853;46.166;3.640;2023-04-06T07:52:07;25.35;;;12.13;;
74102;SDS011;62853;46.166;3.640;2023-04-06T07:54:32;27.25;;;12.10;;
74102;SDS011;62853;46.166;3.640;2023-04-06T07:56:58;27.08;;;12.35;;
74102;SDS011;62853;46.166;3.640;2023-04-06T07:59:23;24.02;;;12.00;;
74102;SDS011;62853;46.166;3.640;2023-04-06T08:01:49;24.48;;;12.57;;
74102;SDS011;62853;46.166;3.640;2023-04-06T08:04:14;29.10;;;11.57;;
74102;SDS011;62853;46.166;3.640;2023-04-06T08:06:40;25.75;;;12.30;;
74102;SDS011;62853;46.166;3.640;2023-04-06T08:09:06;27.10;;;13.00;;
74102;SDS011;62853;46.166;3.640;2023-04-06T08:11:31;23.48;;;12.07;;
74102;SDS011;62853;46.166;3.640;2023-04-06T08:13:57;25.58;;;11.68;;
74102;SDS011;62853;46.166;3.640;2023-04-06T08:16:22;23.83;;;11.90;;
74102;SDS011;62853;46.166;3.640;2023-04-06T08:18:48;29.40;;;11.38;;
74102;SDS011;62853;46.166;3.640;2023-04-06T08:21:14;25.48;;;12.10;;
74102;SDS011;62853;46.166;3.640;2023-04-06T08:23:39;22.05;;;12.10;;
74102;SDS011;62853;46.166;3.640;2023-04-06T08:26:05;27.88;;;12.70;;
74102;SDS011;62853;46.166;3.640;2023-04-06T08:28:30;25.38;;;12.50;;
74102;SDS011;62853;46.166;3.640;2023-04-06T08:30:56;29.15;;;13.07;;
74102;SDS011;62853;46.166;3.640;2023-04-06T08:33:21;24.05;;;11.57;;
74102;SDS011;62853;46.166;3.640;2023-04-06T08:35:47;25.02;;;11.38;;
74102;SDS011;62853;46.166;3.640;2023-04-06T08:38:12;29.77;;;12.52;;
74102;SDS011;62853;46.166;3.640;2023-04-06T08:40:38;22.98;;;12.05;;
74102;SDS011;62853;46.166;3.640;2023-04-06T08:43:06;22.45;;;10.98;;
74102;SDS011;62853;46.166;3.640;2023-04-06T08:45:34;26.90;;;12.43;;
74102;SDS011;62853;46.166;3.640;2023-04-06T08:48:00;27.83;;;12.13;;
74102;SDS011;62853;46.166;3.640;2023-04-06T08:50:29;28.05;;;12.27;;
74102;SDS011;62853;46.166;3.640;2023-04-06T08:52:55;25.65;;;12.05;;
74102;SDS011;62853;46.166;3.640;2023-04-06T08:55:21;23.00;;;11.25;;
74102;SDS011;62853;46.166;3.640;2023-04-06T08:57:47;26.70;;;12.18;;
74102;SDS011;62853;46.166;3.640;2023-04-06T09:00:13;26.40;;;12.98;;
74102;SDS011;62853;46.166;3.640;2023-04-06T09:02:41;24.08;;;11.30;;
74102;SDS011;62853;46.166;3.640;2023-04-06T09:05:08;26.60;;;11.93;;
74102;SDS011;62853;46.166;3.640;2023-04-06T09:07:37;21.95;;;11.25;;
74102;SDS011;62853;46.166;3.640;2023-04-06T09:10:04;22.95;;;12.18;;
74102;SDS011;62853;46.166;3.640;2023-04-06T09:12:31;29.00;;;13.05;;
74102;SDS011;62853;46.166;3.640;2023-04-06T09:14:57;21.20;;;11.18;;
74102;SDS011;62853;46.166;3.640;2023-04-06T09:17:25;25.80;;;13.00;;
74102;SDS011;62853;46.166;3.640;2023-04-06T09:19:52;25.00;;;12.45;;
74102;SDS011;62853;46.166;3.640;2023-04-06T09:22:18;26.20;;;13.65;;
74102;SDS011;62853;46.166;3.640;2023-04-06T09:27:13;25.25;;;13.18;;
74102;SDS011;62853;46.166;3.640;2023-04-06T09:29:40;22.38;;;12.30;;
74102;SDS011;62853;46.166;3.640;2023-04-06T09:32:06;26.17;;;12.98;;
74102;SDS011;62853;46.166;3.640;2023-04-06T09:34:36;30.00;;;13.13;;
74102;SDS011;62853;46.166;3.640;2023-04-06T09:37:13;30.17;;;13.27;;
74102;SDS011;62853;46.166;3.640;2023-04-06T09:39:39;22.88;;;11.38;;
74102;SDS011;62853;46.166;3.640;2023-04-06T09:42:05;23.25;;;11.85;;
74102;SDS011;62853;46.166;3.640;2023-04-06T09:44:31;27.05;;;11.30;;
74102;SDS011;62853;46.166;3.640;2023-04-06T09:46:57;23.17;;;11.13;;
74102;SDS011;62853;46.166;3.640;2023-04-06T09:49:23;25.65;;;11.38;;
74102;SDS011;62853;46.166;3.640;2023-04-06T09:52:01;23.27;;;10.80;;
74102;SDS011;62853;46.166;3.640;2023-04-06T09:54:29;25.85;;;13.15;;
74102;SDS011;62853;46.166;3.640;2023-04-06T09:56:58;20.00;;;11.38;;
74102;SDS011;62853;46.166;3.640;2023-04-06T10:02:12;19.70;;;10.25;;
74102;SDS011;62853;46.166;3.640;2023-04-06T10:04:49;15.70;;;9.32;;
74102;SDS011;62853;46.166;3.640;2023-04-06T10:07:23;22.05;;;10.25;;
74102;SDS011;62853;46.166;3.640;2023-04-06T10:09:51;20.73;;;10.02;;
74102;SDS011;62853;46.166;3.640;2023-04-06T10:12:20;19.77;;;9.98;;
74102;SDS011;62853;46.166;3.640;2023-04-06T10:14:45;20.65;;;10.40;;
74102;SDS011;62853;46.166;3.640;2023-04-06T10:17:11;24.30;;;9.40;;
74102;SDS011;62853;46.166;3.640;2023-04-06T10:19:54;21.10;;;10.05;;
74102;SDS011;62853;46.166;3.640;2023-04-06T10:22:39;18.38;;;9.30;;
74102;SDS011;62853;46.166;3.640;2023-04-06T10:25:10;20.77;;;9.40;;
74102;SDS011;62853;46.166;3.640;2023-04-06T10:27:35;20.92;;;8.75;;
74102;SDS011;62853;46.166;3.640;2023-04-06T10:30:02;24.75;;;10.10;;
74102;SDS011;62853;46.166;3.640;2023-04-06T10:32:38;18.08;;;8.27;;
74102;SDS011;62853;46.166;3.640;2023-04-06T10:37:45;18.02;;;7.50;;
74102;SDS011;62853;46.166;3.640;2023-04-06T10:40:18;18.38;;;8.23;;
74102;SDS011;62853;46.166;3.640;2023-04-06T10:45:23;13.38;;;6.47;;
74102;SDS011;62853;46.166;3.640;2023-04-06T10:47:53;11.82;;;5.68;;
74102;SDS011;62853;46.166;3.640;2023-04-06T10:50:19;11.10;;;5.65;;
74102;SDS011;62853;46.166;3.640;2023-04-06T10:52:45;12.05;;;6.20;;
74102;SDS011;62853;46.166;3.640;2023-04-06T10:55:29;11.15;;;5.70;;
74102;SDS011;62853;46.166;3.640;2023-04-06T10:57:55;11.25;;;5.50;;
74102;SDS011;62853;46.166;3.640;2023-04-06T11:00:21;9.70;;;5.15;;
74102;SDS011;62853;46.166;3.640;2023-04-06T11:02:47;12.50;;;6.10;;
74102;SDS011;62853;46.166;3.640;2023-04-06T11:05:14;12.77;;;5.47;;
74102;SDS011;62853;46.166;3.640;2023-04-06T11:07:40;13.23;;;5.38;;
74102;SDS011;62853;46.166;3.640;2023-04-06T11:10:06;11.55;;;5.78;;
74102;SDS011;62853;46.166;3.640;2023-04-06T11:12:33;12.40;;;5.57;;
74102;SDS011;62853;46.166;3.640;2023-04-06T11:15:02;9.85;;;5.78;;
74102;SDS011;62853;46.166;3.640;2023-04-06T11:17:32;12.93;;;6.75;;
74102;SDS011;62853;46.166;3.640;2023-04-06T11:20:00;10.40;;;5.93;;
74102;SDS011;62853;46.166;3.640;2023-04-06T11:22:27;13.85;;;5.75;;
74102;SDS011;62853;46.166;3.640;2023-04-06T11:25:04;12.85;;;6.35;;
74102;SDS011;62853;46.166;3.640;2023-04-06T11:27:36;11.32;;;6.03;;
74102;SDS011;62853;46.166;3.640;2023-04-06T11:30:02;13.63;;;6.70;;
74102;SDS011;62853;46.166;3.640;2023-04-06T11:32:28;15.55;;;6.97;;
74102;SDS011;62853;46.166;3.640;2023-04-06T11:34:54;13.57;;;6.88;;
74102;SDS011;62853;46.166;3.640;2023-04-06T11:37:25;10.95;;;6.32;;
74102;SDS011;62853;46.166;3.640;2023-04-06T11:39:52;13.60;;;6.75;;
74102;SDS011;62853;46.166;3.640;2023-04-06T11:42:23;14.55;;;6.93;;
74102;SDS011;62853;46.166;3.640;2023-04-06T11:44:50;15.48;;;7.45;;
74102;SDS011;62853;46.166;3.640;2023-04-06T11:47:18;13.05;;;7.25;;
74102;SDS011;62853;46.166;3.640;2023-04-06T11:49:45;14.57;;;5.97;;
74102;SDS011;62853;46.166;3.640;2023-04-06T11:52:17;15.70;;;7.10;;
74102;SDS011;62853;46.166;3.640;2023-04-06T11:54:44;14.50;;;6.97;;
74102;SDS011;62853;46.166;3.640;2023-04-06T11:57:10;13.88;;;7.05;;
74102;SDS011;62853;46.166;3.640;2023-04-06T11:59:36;14.52;;;7.43;;
74102;SDS011;62853;46.166;3.640;2023-04-06T12:02:02;15.68;;;7.05;;
74102;SDS011;62853;46.166;3.640;2023-04-06T12:04:28;13.02;;;7.38;;
74102;SDS011;62853;46.166;3.640;2023-04-06T12:06:54;16.00;;;7.57;;
74102;SDS011;62853;46.166;3.640;2023-04-06T12:09:19;14.25;;;7.60;;
74102;SDS011;62853;46.166;3.640;2023-04-06T12:11:45;13.70;;;6.85;;
74102;SDS011;62853;46.166;3.640;2023-04-06T12:14:11;17.25;;;7.50;;
74102;SDS011;62853;46.166;3.640;2023-04-06T12:16:37;16.08;;;7.90;;
74102;SDS011;62853;46.166;3.640;2023-04-06T12:19:02;17.42;;;8.38;;
74102;SDS011;62853;46.166;3.640;2023-04-06T12:21:28;14.93;;;7.82;;
74102;SDS011;62853;46.166;3.640;2023-04-06T12:23:55;14.25;;;7.13;;
74102;SDS011;62853;46.166;3.640;2023-04-06T12:26:21;16.10;;;8.70;;
74102;SDS011;62853;46.166;3.640;2023-04-06T12:28:47;15.55;;;7.75;;
74102;SDS011;62853;46.166;3.640;2023-04-06T12:31:16;12.07;;;7.00;;
74102;SDS011;62853;46.166;3.640;2023-04-06T12:33:42;15.30;;;8.10;;
74102;SDS011;62853;46.166;3.640;2023-04-06T12:36:13;13.07;;;6.65;;
74102;SDS011;62853;46.166;3.640;2023-04-06T12:38:49;13.55;;;6.93;;
74102;SDS011;62853;46.166;3.640;2023-04-06T12:41:15;11.90;;;7.22;;
74102;SDS011;62853;46.166;3.640;2023-04-06T12:43:42;14.35;;;7.13;;
74102;SDS011;62853;46.166;3.640;2023-04-06T12:46:08;16.63;;;7.10;;
74102;SDS011;62853;46.166;3.640;2023-04-06T12:48:33;15.55;;;6.35;;
74102;SDS011;62853;46.166;3.640;2023-04-06T12:51:01;13.70;;;7.07;;
74102;SDS011;62853;46.166;3.640;2023-04-06T12:53:27;15.45;;;6.97;;
74102;SDS011;62853;46.166;3.640;2023-04-06T12:55:53;14.20;;;6.90;;
74102;SDS011;62853;46.166;3.640;2023-04-06T12:58:19;14.60;;;7.35;;
74102;SDS011;62853;46.166;3.640;2023-04-06T13:00:46;14.80;;;7.43;;
74102;SDS011;62853;46.166;3.640;2023-04-06T13:03:12;15.65;;;7.22;;
74102;SDS011;62853;46.166;3.640;2023-04-06T13:05:47;15.38;;;6.88;;
74102;SDS011;62853;46.166;3.640;2023-04-06T13:08:14;18.63;;;8.02;;
74102;SDS011;62853;46.166;3.640;2023-04-06T13:10:46;14.13;;;7.40;;
74102;SDS011;62853;46.166;3.640;2023-04-06T13:13:13;16.23;;;7.32;;
74102;SDS011;62853;46.166;3.640;2023-04-06T13:15:40;18.42;;;7.93;;
74102;SDS011;62853;46.166;3.640;2023-04-06T13:18:06;13.93;;;7.35;;
74102;SDS011;62853;46.166;3.640;2023-04-06T13:20:32;16.30;;;8.95;;
74102;SDS011;62853;46.166;3.640;2023-04-06T13:22:57;18.30;;;7.78;;
74102;SDS011;62853;46.166;3.640;2023-04-06T13:25:23;13.77;;;7.60;;
74102;SDS011;62853;46.166;3.640;2023-04-06T13:27:48;14.23;;;8.07;;
74102;SDS011;62853;46.166;3.640;2023-04-06T13:30:14;13.27;;;7.28;;
74102;SDS011;62853;46.166;3.640;2023-04-06T13:32:40;14.30;;;7.57;;
74102;SDS011;62853;46.166;3.640;2023-04-06T13:35:06;12.57;;;6.93;;
74102;SDS011;62853;46.166;3.640;2023-04-06T13:37:32;17.35;;;7.70;;
74102;SDS011;62853;46.166;3.640;2023-04-06T13:39:58;13.20;;;7.28;;
74102;SDS011;62853;46.166;3.640;2023-04-06T13:42:24;16.60;;;8.77;;
74102;SDS011;62853;46.166;3.640;2023-04-06T13:44:50;17.65;;;7.65;;
74102;SDS011;62853;46.166;3.640;2023-04-06T13:47:16;12.88;;;7.38;;
74102;SDS011;62853;46.166;3.640;2023-04-06T13:49:41;13.95;;;7.18;;
74102;SDS011;62853;46.166;3.640;2023-04-06T13:52:07;14.77;;;7.32;;
74102;SDS011;62853;46.166;3.640;2023-04-06T13:54:32;12.40;;;7.10;;
74102;SDS011;62853;46.166;3.640;2023-04-06T13:56:58;18.02;;;7.47;;
74102;SDS011;62853;46.166;3.640;2023-04-06T13:59:23;16.38;;;7.25;;
74102;SDS011;62853;46.166;3.640;2023-04-06T14:01:49;15.48;;;7.32;;
74102;SDS011;62853;46.166;3.640;2023-04-06T14:04:14;11.50;;;6.13;;
74102;SDS011;62853;46.166;3.640;2023-04-06T14:06:40;13.90;;;7.18;;
74102;SDS011;62853;46.166;3.640;2023-04-06T14:09:05;11.80;;;7.13;;
74102;SDS011;62853;46.166;3.640;2023-04-06T14:11:31;14.25;;;7.53;;
74102;SDS011;62853;46.166;3.640;2023-04-06T14:13:56;19.52;;;8.40;;
74102;SDS011;62853;46.166;3.640;2023-04-06T14:16:23;16.35;;;7.85;;
74102;SDS011;62853;46.166;3.640;2023-04-06T14:18:48;15.32;;;8.43;;
74102;SDS011;62853;46.166;3.640;2023-04-06T14:21:14;14.40;;;7.63;;
74102;SDS011;62853;46.166;3.640;2023-04-06T14:23:40;15.80;;;8.82;;
74102;SDS011;62853;46.166;3.640;2023-04-06T14:26:06;15.70;;;8.13;;
74102;SDS011;62853;46.166;3.640;2023-04-06T14:28:33;17.00;;;8.43;;
74102;SDS011;62853;46.166;3.640;2023-04-06T14:31:00;13.27;;;8.35;;